createdAt,value
2018-02-21T00:02:22.582Z,42.30
2018-02-21T00:04:50.830Z,42.97
2018-02-21T00:07:19.866Z,44.60
2018-02-21T00:09:48.158Z,43.40
2018-02-21T00:12:16.438Z,42.80
2018-02-21T00:14:44.693Z,42.03
2018-02-21T00:17:12.961Z,40.27
2018-02-21T00:19:42.715Z,41.97
2018-02-21T00:22:12.705Z,42.83
2018-02-21T00:24:41.020Z,41.73
2018-02-21T00:27:09.282Z,39.70
2018-02-21T00:29:37.541Z,40.57
2018-02-21T00:32:05.830Z,42.40
2018-02-21T00:34:34.103Z,39.37
2018-02-21T00:37:03.130Z,37.00
2018-02-21T00:39:31.386Z,39.30
2018-02-21T00:41:59.657Z,37.47
2018-02-21T00:44:27.978Z,37.47
2018-02-21T00:46:56.236Z,39.30
2018-02-21T00:49:24.499Z,37.80
2018-02-21T00:51:53.515Z,39.90
2018-02-21T00:54:21.823Z,38.50
2018-02-21T00:56:50.075Z,36.93
2018-02-21T00:59:18.339Z,38.17
2018-02-21T01:01:47.365Z,39.50
2018-02-21T01:04:15.638Z,38.47
2018-02-21T01:06:43.879Z,37.03
2018-02-21T01:09:12.156Z,42.07
2018-02-21T01:11:40.405Z,43.43
2018-02-21T01:14:08.722Z,41.80
2018-02-21T01:16:36.971Z,40.17
2018-02-21T01:19:05.234Z,39.13
2018-02-21T01:21:33.479Z,40.70
2018-02-21T01:24:02.531Z,42.03
2018-02-21T01:26:30.790Z,40.27
2018-02-21T01:28:59.059Z,41.17
2018-02-21T01:31:27.306Z,44.77
2018-02-21T01:33:55.594Z,44.10
2018-02-21T01:36:23.938Z,43.80
2018-02-21T01:38:52.183Z,42.27
2018-02-21T01:41:21.215Z,42.93
2018-02-21T01:43:49.455Z,41.73
2018-02-21T01:46:17.758Z,45.87
2018-02-21T01:48:46.055Z,44.53
2018-02-21T01:51:14.338Z,46.43
2018-02-21T01:53:42.593Z,45.10
2018-02-21T01:56:10.862Z,45.80
2018-02-21T01:58:39.877Z,43.70
2018-02-21T02:01:08.188Z,44.10
2018-02-21T02:03:36.452Z,46.17
2018-02-21T02:06:04.798Z,43.40
2018-02-21T02:08:33.845Z,49.13
2018-02-21T02:11:02.154Z,45.30
2018-02-21T02:13:30.419Z,48.60
2018-02-21T02:15:58.691Z,46.63
2018-02-21T02:18:26.976Z,49.33
2018-02-21T02:20:55.257Z,49.60
2018-02-21T02:23:23.519Z,49.33
2018-02-21T02:25:51.789Z,50.43
2018-02-21T02:28:20.103Z,50.50
2018-02-21T02:30:48.390Z,47.23
2018-02-21T02:33:16.635Z,52.60
2018-02-21T02:35:44.916Z,49.00
2018-02-21T02:38:24.919Z,49.10
2018-02-21T02:40:53.194Z,50.60
2018-02-21T02:43:21.451Z,46.87
2018-02-21T02:45:49.718Z,47.80
2018-02-21T02:48:17.979Z,47.63
2018-02-21T02:50:47.015Z,46.83
2018-02-21T02:53:15.290Z,47.83
2018-02-21T02:55:43.569Z,48.60
2018-02-21T02:58:11.820Z,48.07
2018-02-21T03:00:40.850Z,46.20
2018-02-21T03:03:09.168Z,47.50
2018-02-21T03:05:37.416Z,48.80
2018-02-21T03:08:05.675Z,46.70
2018-02-21T03:10:33.974Z,46.23
2018-02-21T03:13:02.230Z,46.53
2018-02-21T03:15:30.499Z,49.20
2018-02-21T03:17:59.516Z,46.90
2018-02-21T03:20:27.772Z,46.70
2018-02-21T03:22:56.477Z,44.50
2018-02-21T03:25:25.609Z,47.80
2018-02-21T03:27:53.873Z,46.60
2018-02-21T03:30:22.150Z,47.60
2018-02-21T03:32:50.402Z,44.27
2018-02-21T03:35:18.671Z,47.20
2018-02-21T03:37:46.917Z,44.90
2018-02-21T03:40:15.184Z,45.57
2018-02-21T03:42:43.435Z,45.73
2018-02-21T03:45:12.478Z,46.00
2018-02-21T03:47:40.749Z,40.47
2018-02-21T03:50:09.045Z,46.10
2018-02-21T03:52:37.298Z,43.90
2018-02-21T03:55:05.579Z,40.77
2018-02-21T03:57:33.898Z,43.90
2018-02-21T04:00:02.168Z,44.27
2018-02-21T04:02:30.450Z,46.20
2018-02-21T04:04:58.700Z,43.63
2018-02-21T04:07:26.968Z,41.03
2018-02-21T04:09:55.994Z,38.83
2018-02-21T04:12:24.256Z,41.50
2018-02-21T04:14:52.602Z,40.13
2018-02-21T04:17:20.838Z,40.20
2018-02-21T04:19:49.082Z,41.90
2018-02-21T04:22:18.127Z,40.70
2018-02-21T04:24:46.380Z,41.07
2018-02-21T04:27:14.686Z,42.10
2018-02-21T04:29:42.966Z,42.80
2018-02-21T04:32:11.226Z,41.03
2018-02-21T04:34:39.491Z,43.53
2018-02-21T04:37:08.513Z,39.63
2018-02-21T04:39:36.778Z,45.37
2018-02-21T04:42:05.043Z,42.87
2018-02-21T04:44:34.081Z,44.13
2018-02-21T04:47:02.410Z,46.23
2018-02-21T04:49:30.644Z,43.37
2018-02-21T04:51:58.908Z,46.00
2018-02-21T04:54:29.699Z,42.47
2018-02-21T04:57:03.660Z,43.83
2018-02-21T04:59:47.570Z,44.10
2018-02-21T05:02:15.839Z,44.27
2018-02-21T05:04:44.094Z,46.30
2018-02-21T05:07:12.383Z,43.07
2018-02-21T05:09:41.087Z,45.58
2018-02-21T05:12:09.361Z,45.17
2018-02-21T05:14:37.611Z,45.73
2018-02-21T05:17:05.887Z,45.00
2018-02-21T05:19:34.198Z,39.43
2018-02-21T05:22:02.523Z,45.72
2018-02-21T05:24:30.747Z,44.73
2018-02-21T05:26:59.042Z,44.90
2018-02-21T05:29:27.294Z,42.53
2018-02-21T05:31:55.584Z,43.58
2018-02-21T05:34:23.898Z,42.40
2018-02-21T05:36:52.994Z,44.83
2018-02-21T05:39:21.249Z,43.40
2018-02-21T05:41:49.538Z,45.40
2018-02-21T05:44:17.796Z,44.20
2018-02-21T05:46:46.910Z,41.77
2018-02-21T05:49:15.162Z,42.77
2018-02-21T05:51:44.220Z,43.40
2018-02-21T05:54:12.471Z,43.17
2018-02-21T05:56:40.731Z,42.50
2018-02-21T05:59:09.776Z,42.70
2018-02-21T06:01:38.034Z,43.60
2018-02-21T06:04:06.297Z,43.67
2018-02-21T06:06:35.344Z,41.17
2018-02-21T06:09:03.578Z,42.27
2018-02-21T06:11:32.615Z,42.17
2018-02-21T06:14:00.918Z,43.93
2018-02-21T06:16:29.181Z,40.87
2018-02-21T06:18:57.452Z,44.27
2018-02-21T06:21:25.732Z,41.88
2018-02-21T06:23:54.006Z,39.95
2018-02-21T06:26:22.242Z,42.97
2018-02-21T06:28:50.960Z,42.30
2018-02-21T06:31:20.705Z,38.63
2018-02-21T06:33:54.179Z,40.70
2018-02-21T06:36:23.232Z,39.37
2018-02-21T06:38:51.502Z,44.20
2018-02-21T06:41:19.782Z,43.63
2018-02-21T06:43:48.205Z,41.50
2018-02-21T06:46:16.427Z,39.83
2018-02-21T06:48:44.698Z,37.92
2018-02-21T06:51:13.028Z,38.30
2018-02-21T06:53:41.286Z,39.50
2018-02-21T06:56:09.549Z,41.07
2018-02-21T06:58:37.835Z,38.30
2018-02-21T07:01:06.081Z,39.13
2018-02-21T07:03:35.126Z,38.70
2018-02-21T07:06:03.386Z,38.27
2018-02-21T07:08:31.718Z,39.70
2018-02-21T07:10:59.953Z,39.67
2018-02-21T07:13:29.068Z,37.67
2018-02-21T07:15:57.358Z,38.30
2018-02-21T07:18:25.620Z,39.43
2018-02-21T07:20:53.913Z,37.13
2018-02-21T07:23:22.199Z,38.30
2018-02-21T07:25:50.442Z,36.97
2018-02-21T07:28:18.755Z,36.53
2018-02-21T07:30:47.002Z,35.30
2018-02-21T07:33:16.026Z,38.47
2018-02-21T07:35:44.272Z,40.03
2018-02-21T07:38:13.299Z,37.10
2018-02-21T07:40:41.553Z,36.30
2018-02-21T07:43:10.595Z,35.40
2018-02-21T07:45:38.872Z,36.73
2018-02-21T07:48:07.139Z,39.30
2018-02-21T07:50:35.390Z,39.70
2018-02-21T07:53:04.426Z,37.90
2018-02-21T07:55:32.836Z,39.43
2018-02-21T07:58:01.351Z,38.30
2018-02-21T08:00:29.741Z,38.20
2018-02-21T08:02:58.265Z,38.53
2018-02-21T08:05:26.694Z,38.77
2018-02-21T08:07:56.104Z,39.90
2018-02-21T08:10:24.694Z,39.37
2018-02-21T08:12:53.756Z,38.63
2018-02-21T08:15:22.059Z,38.63
2018-02-21T08:17:50.284Z,40.50
2018-02-21T08:20:19.307Z,39.37
2018-02-21T08:22:47.602Z,37.50
2018-02-21T08:25:15.858Z,39.47
2018-02-21T08:27:44.135Z,42.23
2018-02-21T08:30:12.398Z,40.30
2018-02-21T08:32:40.659Z,39.90
2018-02-21T08:35:10.421Z,39.53
2018-02-21T08:37:38.686Z,40.57
2018-02-21T08:40:06.951Z,41.20
2018-02-21T08:42:35.992Z,38.27
2018-02-21T08:45:04.250Z,37.57
2018-02-21T08:47:32.518Z,39.53
2018-02-21T08:50:01.902Z,36.73
2018-02-21T08:52:31.698Z,38.73
2018-02-21T08:54:59.945Z,37.13
2018-02-21T08:57:28.227Z,36.60
2018-02-21T08:59:56.471Z,38.30
2018-02-21T09:02:25.527Z,36.70
2018-02-21T09:04:53.788Z,37.87
2018-02-21T09:07:22.063Z,36.30
2018-02-21T09:09:50.381Z,35.53
2018-02-21T09:12:18.648Z,35.80
2018-02-21T09:14:46.902Z,36.80
2018-02-21T09:17:15.173Z,35.57
2018-02-21T09:19:44.190Z,35.13
2018-02-21T09:22:12.479Z,34.93
2018-02-21T09:24:40.770Z,34.20
2018-02-21T09:27:09.052Z,36.20
2018-02-21T09:29:37.314Z,37.30
2018-02-21T09:32:05.581Z,35.03
2018-02-21T09:34:34.626Z,35.67
2018-02-21T09:37:02.953Z,36.57
2018-02-21T09:39:31.731Z,36.20
2018-02-21T09:41:59.986Z,35.40
2018-02-21T09:44:28.248Z,35.97
2018-02-21T09:46:56.491Z,35.63
2018-02-21T09:49:25.528Z,34.43
2018-02-21T09:51:53.794Z,33.83
2018-02-21T09:54:22.076Z,32.70
2018-02-21T09:56:50.334Z,35.10
2018-02-21T09:59:19.414Z,33.53
2018-02-21T10:01:47.650Z,34.23
2018-02-21T10:04:15.938Z,35.27
2018-02-21T10:06:44.178Z,33.37
2018-02-21T10:09:13.213Z,33.07
2018-02-21T10:11:41.476Z,32.40
2018-02-21T10:14:09.784Z,32.60
2018-02-21T10:16:38.211Z,31.80
2018-02-21T10:19:07.514Z,32.23
2018-02-21T10:21:36.810Z,32.17
2018-02-21T10:24:05.410Z,32.27
2018-02-21T10:26:34.604Z,32.53
2018-02-21T10:29:03.213Z,31.07
2018-02-21T10:31:32.561Z,28.50
2018-02-21T10:34:00.925Z,30.43
2018-02-21T10:36:29.671Z,29.73
2018-02-21T10:38:58.264Z,31.83
2018-02-21T10:41:26.849Z,30.90
2018-02-21T10:43:55.598Z,29.13
2018-02-21T10:46:26.571Z,29.53
2018-02-21T10:48:55.732Z,27.97
2018-02-21T10:51:24.268Z,29.47
2018-02-21T10:53:53.415Z,27.20
2018-02-21T10:56:21.957Z,27.97
2018-02-21T10:58:50.573Z,28.30
2018-02-21T11:01:27.839Z,28.70
2018-02-21T11:03:56.427Z,26.90
2018-02-21T11:06:25.219Z,29.30
2018-02-21T11:08:54.116Z,25.77
2018-02-21T11:11:22.887Z,25.97
2018-02-21T11:13:51.307Z,26.87
2018-02-21T11:16:20.415Z,27.47
2018-02-21T11:18:49.450Z,27.90
2018-02-21T11:21:17.715Z,25.77
2018-02-21T11:23:46.057Z,26.13
2018-02-21T11:26:14.861Z,23.90
2018-02-21T11:28:43.203Z,25.90
2018-02-21T11:31:11.461Z,24.50
2018-02-21T11:33:39.743Z,25.20
2018-02-21T11:36:07.993Z,24.97
2018-02-21T11:38:37.044Z,23.83
2018-02-21T11:41:05.296Z,24.20
2018-02-21T11:43:33.578Z,27.20
2018-02-21T11:46:01.835Z,26.50
2018-02-21T11:48:30.153Z,26.60
2018-02-21T11:50:58.402Z,27.00
2018-02-21T11:53:27.582Z,27.03
2018-02-21T11:55:55.846Z,25.33
2018-02-21T11:58:24.146Z,29.20
2018-02-21T12:00:52.493Z,25.80
2018-02-21T12:03:20.758Z,25.40
2018-02-21T12:05:49.018Z,26.90
2018-02-21T12:08:18.062Z,25.97
2018-02-21T12:10:46.318Z,25.50
2018-02-21T12:13:14.594Z,27.37
2018-02-21T12:15:42.846Z,23.60
2018-02-21T12:18:11.894Z,24.27
2018-02-21T12:20:40.151Z,23.73
2018-02-21T12:23:08.431Z,22.47
2018-02-21T12:25:36.724Z,24.17
2018-02-21T12:28:04.994Z,24.20
2018-02-21T12:30:33.256Z,23.37
2018-02-21T12:33:03.098Z,25.43
2018-02-21T12:35:31.367Z,22.83
2018-02-21T12:38:03.213Z,21.47
2018-02-21T12:40:37.937Z,21.23
2018-02-21T12:43:16.204Z,22.00
2018-02-21T12:45:47.571Z,19.87
2018-02-21T12:48:15.844Z,20.60
2018-02-21T12:50:44.094Z,20.50
2018-02-21T12:53:12.362Z,22.13
2018-02-21T12:55:41.397Z,21.63
2018-02-21T12:58:09.671Z,22.30
2018-02-21T13:00:37.940Z,21.03
2018-02-21T13:03:06.214Z,21.83
2018-02-21T13:05:34.477Z,21.40
2018-02-21T13:08:03.531Z,21.40
2018-02-21T13:10:31.818Z,20.77
2018-02-21T13:13:00.867Z,20.07
2018-02-21T13:15:29.938Z,20.37
2018-02-21T13:17:59.852Z,21.57
2018-02-21T13:20:28.217Z,21.70
2018-02-21T13:22:56.466Z,19.60
2018-02-21T13:25:24.734Z,20.53
2018-02-21T13:27:53.742Z,20.30
2018-02-21T13:30:22.007Z,20.77
2018-02-21T13:32:51.026Z,18.37
2018-02-21T13:35:19.295Z,20.00
2018-02-21T13:37:48.348Z,18.73
2018-02-21T13:40:16.575Z,20.60
2018-02-21T13:42:45.670Z,20.33
2018-02-21T13:45:14.806Z,20.80
2018-02-21T13:47:43.116Z,20.07
2018-02-21T13:50:11.324Z,20.07
2018-02-21T13:52:40.367Z,20.80
2018-02-21T13:55:08.636Z,19.93
2018-02-21T13:57:36.964Z,20.70
2018-02-21T14:00:05.238Z,22.00
2018-02-21T14:02:33.504Z,19.27
2018-02-21T14:05:01.858Z,20.87
2018-02-21T14:07:30.113Z,20.93
2018-02-21T14:09:59.161Z,19.10
2018-02-21T14:12:27.416Z,19.40
2018-02-21T14:14:55.681Z,21.23
2018-02-21T14:17:24.713Z,20.60
2018-02-21T14:19:53.012Z,19.50
2018-02-21T14:22:21.314Z,20.87
2018-02-21T14:24:49.626Z,20.17
2018-02-21T14:27:18.638Z,21.27
2018-02-21T14:29:46.896Z,18.40
2018-02-21T14:32:15.906Z,20.37
2018-02-21T14:34:44.362Z,21.23
2018-02-21T14:37:12.809Z,19.97
2018-02-21T14:39:41.076Z,20.03
2018-02-21T14:42:09.335Z,22.07
2018-02-21T14:44:38.370Z,21.07
2018-02-21T14:47:06.667Z,18.90
2018-02-21T14:49:34.935Z,20.90
2018-02-21T14:52:03.198Z,19.80
2018-02-21T14:54:31.486Z,19.20
2018-02-21T14:57:00.168Z,21.63
2018-02-21T14:59:29.284Z,21.20
2018-02-21T15:01:57.546Z,19.40
2018-02-21T15:04:26.453Z,19.23
2018-02-21T15:06:54.701Z,18.40
2018-02-21T15:09:23.731Z,18.90
2018-02-21T15:11:52.024Z,18.60
2018-02-21T15:14:21.007Z,19.23
2018-02-21T15:16:49.256Z,18.10
2018-02-21T15:19:18.284Z,19.53
2018-02-21T15:21:46.566Z,18.07
2018-02-21T15:24:14.869Z,17.60
2018-02-21T15:26:43.144Z,17.63
2018-02-21T15:29:11.407Z,18.00
2018-02-21T15:31:39.661Z,20.13
2018-02-21T15:34:08.730Z,17.90
2018-02-21T15:36:36.962Z,18.40
2018-02-21T15:39:05.271Z,18.73
2018-02-21T15:41:33.549Z,19.90
2018-02-21T15:44:01.918Z,19.10
2018-02-21T15:46:30.182Z,21.00
2018-02-21T15:48:58.470Z,20.90
2018-02-21T15:51:26.718Z,18.50
2018-02-21T15:53:55.001Z,20.10
2018-02-21T15:56:24.038Z,19.40
2018-02-21T15:58:52.298Z,21.33
2018-02-21T16:01:21.353Z,20.37
2018-02-21T16:03:49.606Z,21.47
2018-02-21T16:06:17.880Z,18.40
2018-02-21T16:08:46.180Z,17.20
2018-02-21T16:11:14.456Z,16.43
2018-02-21T16:13:42.829Z,15.90
2018-02-21T16:16:11.042Z,17.67
2018-02-21T16:18:40.059Z,15.73
2018-02-21T16:21:08.393Z,16.60
2018-02-21T16:23:36.721Z,16.40
2018-02-21T16:26:05.877Z,16.87
2018-02-21T16:28:34.158Z,16.60
2018-02-21T16:31:02.433Z,17.37
2018-02-21T16:33:31.309Z,17.57
2018-02-21T16:35:59.646Z,17.40
2018-02-21T16:38:29.434Z,16.23
2018-02-21T16:40:57.812Z,17.00
2018-02-21T16:43:26.099Z,17.20
2018-02-21T16:45:54.387Z,19.97
2018-02-21T16:48:22.638Z,17.63
2018-02-21T16:50:50.903Z,20.33
2018-02-21T16:53:19.234Z,20.60
2018-02-21T16:55:47.499Z,20.37
2018-02-21T16:58:16.755Z,19.07
2018-02-21T17:00:45.029Z,20.80
2018-02-21T17:03:14.049Z,19.90
2018-02-21T17:05:42.331Z,21.37
2018-02-21T17:08:10.635Z,18.57
2018-02-21T17:10:38.905Z,18.00
2018-02-21T17:13:07.154Z,17.80
2018-02-21T17:15:36.192Z,17.33
2018-02-21T17:18:14.441Z,15.87
2018-02-21T17:20:44.839Z,17.53
2018-02-21T17:23:13.092Z,17.30
2018-02-21T17:25:42.593Z,17.43
2018-02-21T17:28:11.606Z,18.60
2018-02-21T17:30:39.886Z,16.80
2018-02-21T17:33:08.925Z,16.97
2018-02-21T17:35:37.177Z,17.10
2018-02-21T17:38:05.463Z,17.60
2018-02-21T17:40:33.750Z,17.30
2018-02-21T17:43:02.609Z,17.90
2018-02-21T17:45:32.458Z,17.40
2018-02-21T17:48:00.782Z,18.80
2018-02-21T17:50:29.028Z,18.37
2018-02-21T17:52:57.310Z,18.80
2018-02-21T17:55:25.573Z,19.50
2018-02-21T17:57:53.830Z,18.53
2018-02-21T18:00:22.864Z,21.05
2018-02-21T18:02:51.160Z,21.30
2018-02-21T18:05:20.335Z,19.10
2018-02-21T18:07:48.617Z,20.77
2018-02-21T18:10:17.621Z,21.80
2018-02-21T18:12:45.871Z,19.90
2018-02-21T18:15:15.013Z,19.07
2018-02-21T18:17:43.274Z,18.40
2018-02-21T18:20:11.542Z,19.90
2018-02-21T18:22:39.799Z,19.20
2018-02-21T18:25:08.133Z,19.90
2018-02-21T18:27:36.417Z,21.10
2018-02-21T18:30:04.678Z,17.77
2018-02-21T18:32:32.930Z,18.60
2018-02-21T18:35:02.031Z,17.63
2018-02-21T18:37:30.408Z,18.80
2018-02-21T18:39:58.667Z,19.53
2018-02-21T18:42:26.944Z,20.23
2018-02-21T18:44:55.311Z,19.20
2018-02-21T18:47:23.605Z,18.67
2018-02-21T18:49:51.876Z,19.50
2018-02-21T18:52:20.149Z,18.57
2018-02-21T18:54:48.467Z,18.83
2018-02-21T18:57:16.703Z,20.17
2018-02-21T18:59:44.999Z,23.13
2018-02-21T19:02:13.267Z,23.47
2018-02-21T19:04:41.506Z,23.27
2018-02-21T19:07:10.674Z,22.53
2018-02-21T19:09:38.938Z,21.60
2018-02-21T19:12:07.211Z,21.00
2018-02-21T19:14:35.460Z,20.07
2018-02-21T19:17:04.594Z,21.77
2018-02-21T19:19:32.897Z,20.67
2018-02-21T19:22:01.259Z,21.37
2018-02-21T19:24:29.510Z,21.00
2018-02-21T19:26:57.793Z,22.57
2018-02-21T19:29:26.037Z,22.03
2018-02-21T19:31:54.313Z,23.27
2018-02-21T19:34:22.582Z,23.50
2018-02-21T19:36:50.848Z,24.63
2018-02-21T19:39:19.702Z,26.00
2018-02-21T19:41:47.971Z,25.40
2018-02-21T19:44:16.235Z,27.97
2018-02-21T19:46:44.493Z,24.77
2018-02-21T19:49:12.764Z,26.17
2018-02-21T19:51:41.043Z,26.10
2018-02-21T19:54:09.294Z,24.87
2018-02-21T19:56:37.577Z,25.20
2018-02-21T19:59:05.822Z,26.37
2018-02-21T20:01:34.106Z,24.50
2018-02-21T20:04:02.356Z,25.63
2018-02-21T20:06:30.642Z,25.70
2018-02-21T20:08:58.919Z,25.57
2018-02-21T20:11:27.198Z,26.90
2018-02-21T20:13:55.466Z,25.87
2018-02-21T20:16:23.712Z,26.50
2018-02-21T20:18:52.758Z,27.90
2018-02-21T20:21:21.009Z,28.27
2018-02-21T20:23:49.267Z,27.77
2018-02-21T20:26:18.282Z,30.03
2018-02-21T20:28:46.868Z,27.27
2018-02-21T20:31:15.117Z,29.30
2018-02-21T20:33:43.389Z,30.80
2018-02-21T20:36:13.173Z,30.17
2018-02-21T20:38:41.421Z,30.50
2018-02-21T20:41:09.682Z,31.30
2018-02-21T20:43:38.714Z,29.83
2018-02-21T20:46:07.039Z,31.17
2018-02-21T20:48:35.305Z,31.70
2018-02-21T20:51:03.558Z,31.73
2018-02-21T20:53:31.825Z,30.43
2018-02-21T20:56:00.138Z,30.50
2018-02-21T20:58:28.414Z,30.97
2018-02-21T21:00:56.703Z,32.60
2018-02-21T21:03:25.111Z,35.10
2018-02-21T21:05:53.523Z,32.10
2018-02-21T21:08:22.600Z,34.27
2018-02-21T21:10:50.913Z,34.80
2018-02-21T21:13:20.703Z,36.00
2018-02-21T21:15:49.073Z,32.50
2018-02-21T21:18:17.440Z,34.03
2018-02-21T21:20:45.691Z,34.37
2018-02-21T21:23:13.935Z,33.57
2018-02-21T21:25:42.202Z,34.37
2018-02-21T21:28:10.493Z,35.77
2018-02-21T21:30:38.843Z,34.83
2018-02-21T21:33:07.122Z,36.17
2018-02-21T21:35:35.389Z,37.73
2018-02-21T21:38:03.654Z,33.43
2018-02-21T21:40:32.001Z,34.33
2018-02-21T21:43:00.252Z,35.50
2018-02-21T21:45:28.506Z,30.87
2018-02-21T21:47:57.508Z,32.27
2018-02-21T21:50:25.781Z,32.90
2018-02-21T21:52:54.027Z,31.47
2018-02-21T21:55:23.116Z,31.57
2018-02-21T21:57:51.375Z,33.97
2018-02-21T22:00:19.654Z,32.83
2018-02-21T22:02:48.063Z,32.20
2018-02-21T22:05:16.310Z,32.40
2018-02-21T22:07:44.582Z,33.10
2018-02-21T22:10:12.884Z,32.40
2018-02-21T22:12:41.189Z,29.97
2018-02-21T22:15:09.417Z,31.10
2018-02-21T22:17:37.691Z,32.10
2018-02-21T22:20:05.952Z,31.33
2018-02-21T22:22:34.977Z,30.60
2018-02-21T22:25:03.294Z,28.53
2018-02-21T22:27:31.785Z,30.20
2018-02-21T22:30:00.050Z,31.70
2018-02-21T22:32:28.313Z,30.10
2018-02-21T22:34:56.601Z,29.50
2018-02-21T22:37:24.888Z,31.67
2018-02-21T22:39:53.185Z,31.80
2018-02-21T22:42:21.456Z,30.77
2018-02-21T22:44:49.731Z,29.93
2018-02-21T22:47:18.016Z,28.73
2018-02-21T22:49:46.288Z,29.57
2018-02-21T22:52:14.558Z,29.17
2018-02-21T22:54:42.802Z,28.30
2018-02-21T22:57:11.833Z,30.08
2018-02-21T22:59:40.102Z,29.20
2018-02-21T23:02:08.420Z,29.03
2018-02-21T23:04:36.685Z,29.33
2018-02-21T23:07:04.948Z,30.13
2018-02-21T23:09:33.222Z,27.07
2018-02-21T23:12:01.539Z,27.23
2018-02-21T23:14:29.798Z,29.00
2018-02-21T23:16:58.050Z,27.70
2018-02-21T23:19:27.090Z,26.20
2018-02-21T23:21:55.338Z,27.80
2018-02-21T23:24:23.597Z,25.20
2018-02-21T23:26:52.614Z,25.00
2018-02-21T23:29:21.646Z,26.17
2018-02-21T23:31:49.906Z,26.27
2018-02-21T23:34:18.930Z,26.27
2018-02-21T23:36:47.184Z,25.10
2018-02-21T23:39:15.455Z,24.67
2018-02-21T23:41:44.487Z,24.63
2018-02-21T23:44:12.770Z,26.30
2018-02-21T23:46:41.045Z,23.73
2018-02-21T23:49:09.330Z,24.35
2018-02-21T23:51:37.850Z,24.00
2018-02-21T23:54:06.109Z,21.57
2018-02-21T23:56:34.373Z,23.87
2018-02-21T23:59:02.671Z,25.23
